Time;durP1;ratioP1;P1;durP2;ratioP2;P2;SDS_P1;SDS_P2;PMS_P1;PMS_P2;Temp;Humidity;BMP_temperature;BMP_pressure;BME280_temperature;BME280_humidity;BME280_pressure;Samples;Min_cycle;Max_cycle;Signal;HPM_P1;HPM_P2
2024/04/20 00:00:20;;;;;;;7.90;3.40;;;4.80;99.90;;;;;;5310188;26;20505;-68
2024/04/20 00:02:46;;;;;;;7.17;3.73;;;4.90;99.90;;;;;;5304330;26;20762;-67
2024/04/20 00:05:12;;;;;;;4.80;3.90;;;4.90;99.90;;;;;;5300367;27;20553;-68
2024/04/20 00:07:38;;;;;;;6.50;3.83;;;5.00;99.90;;;;;;5312568;26;20261;-67
2024/04/20 00:10:04;;;;;;;6.40;3.57;;;4.90;99.90;;;;;;5294592;26;20530;-68
2024/04/20 00:12:30;;;;;;;11.10;3.30;;;4.90;99.90;;;;;;5312399;26;20626;-68
2024/04/20 00:14:57;;;;;;;4.60;3.30;;;5.00;99.90;;;;;;5285822;26;20458;-68
2024/04/20 00:17:23;;;;;;;8.83;3.90;;;5.00;99.90;;;;;;5280328;27;20458;-68
2024/04/20 00:19:48;;;;;;;8.23;3.60;;;4.90;99.90;;;;;;5306081;27;20457;-68
2024/04/20 00:22:14;;;;;;;3.47;3.17;;;4.90;99.90;;;;;;5300867;26;20459;-67
2024/04/20 00:24:39;;;;;;;5.10;3.20;;;4.90;99.90;;;;;;5284786;27;20223;-67
2024/04/20 00:27:08;;;;;;;6.50;3.97;;;4.90;99.90;;;;;;5305259;26;20280;-67
2024/04/20 00:29:33;;;;;;;7.93;3.80;;;4.90;99.90;;;;;;5310387;27;20226;-67
2024/04/20 00:31:59;;;;;;;6.30;2.93;;;4.90;99.90;;;;;;5303924;26;20457;-68
2024/04/20 00:34:26;;;;;;;4.10;2.40;;;4.80;99.90;;;;;;5291823;26;20271;-68
2024/04/20 00:36:52;;;;;;;5.90;3.30;;;4.70;99.90;;;;;;5301923;27;20453;-67
2024/04/20 00:39:18;;;;;;;3.83;2.77;;;4.60;99.90;;;;;;5283196;26;20462;-67
2024/04/20 00:41:53;;;;;;;4.87;3.70;;;4.60;99.90;;;;;;5295132;27;20227;-67
2024/04/20 00:44:19;;;;;;;6.10;2.97;;;4.60;99.90;;;;;;5292262;27;20512;-67
2024/04/20 00:46:47;;;;;;;5.60;1.93;;;4.60;99.90;;;;;;5300021;26;20461;-67
2024/04/20 00:49:13;;;;;;;7.07;3.53;;;4.60;99.90;;;;;;5298145;26;20470;-67
2024/04/20 00:51:41;;;;;;;7.80;3.17;;;4.60;99.90;;;;;;5277355;27;20588;-68
2024/04/20 00:54:08;;;;;;;11.03;3.20;;;4.60;99.90;;;;;;5300687;27;20455;-67
2024/04/20 00:56:35;;;;;;;6.00;3.80;;;4.60;99.90;;;;;;5297204;27;20465;-68
2024/04/20 00:59:01;;;;;;;6.87;2.37;;;4.60;99.90;;;;;;5311572;26;20500;-68
2024/04/20 01:01:26;;;;;;;5.60;3.57;;;4.60;99.90;;;;;;5292125;26;20616;-68
2024/04/20 01:03:53;;;;;;;6.70;2.80;;;4.60;99.90;;;;;;5280018;27;20908;-67
2024/04/20 01:06:19;;;;;;;10.30;3.23;;;4.60;99.90;;;;;;5298715;26;20246;-67
2024/04/20 01:08:45;;;;;;;7.07;2.83;;;4.60;99.90;;;;;;5283528;26;20578;-67
2024/04/20 01:11:11;;;;;;;7.90;3.40;;;4.60;99.90;;;;;;5306815;27;20234;-68
2024/04/20 01:13:37;;;;;;;7.63;3.30;;;4.60;99.90;;;;;;5311551;26;20869;-67
2024/04/20 01:16:03;;;;;;;6.53;3.37;;;4.60;99.90;;;;;;5296411;26;20519;-68
2024/04/20 01:18:28;;;;;;;6.27;3.43;;;4.60;99.90;;;;;;5279566;26;20644;-67
2024/04/20 01:20:55;;;;;;;7.30;3.40;;;4.60;99.90;;;;;;5286739;27;20583;-68
2024/04/20 01:23:21;;;;;;;6.40;3.30;;;4.70;99.90;;;;;;5294807;26;20223;-67
2024/04/20 01:25:49;;;;;;;4.93;2.53;;;4.70;99.90;;;;;;5285033;27;20852;-68
2024/04/20 01:28:14;;;;;;;6.07;3.10;;;4.70;99.90;;;;;;5301700;27;20735;-67
2024/04/20 01:30:40;;;;;;;10.60;3.70;;;4.70;99.90;;;;;;5308633;26;20461;-68
2024/04/20 01:33:06;;;;;;;6.90;3.03;;;4.70;99.90;;;;;;5304055;26;20521;-67
2024/04/20 01:35:31;;;;;;;7.80;3.57;;;4.60;99.90;;;;;;5286911;27;20234;-68
2024/04/20 01:37:57;;;;;;;9.63;2.80;;;4.60;99.90;;;;;;5310562;26;20272;-68
2024/04/20 01:40:22;;;;;;;11.97;3.20;;;4.60;99.90;;;;;;5309105;26;20336;-68
2024/04/20 01:42:48;;;;;;;10.07;3.43;;;4.60;99.90;;;;;;5289490;26;20340;-68
2024/04/20 01:45:14;;;;;;;5.90;3.00;;;4.50;99.90;;;;;;5277992;27;20325;-67
2024/04/20 01:47:43;;;;;;;8.90;2.97;;;4.50;99.90;;;;;;5305157;26;20639;-68
2024/04/20 01:50:09;;;;;;;6.87;3.40;;;4.50;99.90;;;;;;5310007;26;20268;-68
2024/04/20 01:52:34;;;;;;;7.07;2.87;;;4.50;99.90;;;;;;5310463;26;20981;-67
2024/04/20 01:55:00;;;;;;;6.60;3.03;;;4.50;99.90;;;;;;5301865;26;20594;-68
2024/04/20 01:57:25;;;;;;;3.23;2.80;;;4.50;99.90;;;;;;5270465;22;20599;-69
2024/04/20 01:59:51;;;;;;;5.90;2.63;;;4.40;99.90;;;;;;5249955;27;20302;-69
2024/04/20 02:02:19;;;;;;;4.70;2.27;;;4.40;99.90;;;;;;5254073;27;20310;-69
2024/04/20 02:04:44;;;;;;;5.30;2.90;;;4.40;99.90;;;;;;5253846;27;20261;-69
2024/04/20 02:07:10;;;;;;;5.17;2.90;;;4.40;99.90;;;;;;5277519;27;20536;-68
2024/04/20 02:09:35;;;;;;;3.27;2.30;;;4.40;99.90;;;;;;5296270;27;20556;-68
2024/04/20 02:12:01;;;;;;;7.67;3.00;;;4.40;99.90;;;;;;5276458;27;20779;-68
2024/04/20 02:14:26;;;;;;;7.90;5.33;;;4.40;99.90;;;;;;5276344;27;20731;-69
2024/04/20 02:16:52;;;;;;;6.80;2.20;;;4.40;99.90;;;;;;5282747;27;20219;-69
2024/04/20 02:19:17;;;;;;;14.10;2.93;;;4.40;99.90;;;;;;5276432;27;20747;-68
2024/04/20 02:21:43;;;;;;;3.30;2.30;;;4.40;99.90;;;;;;5275877;27;20231;-69
2024/04/20 02:24:08;;;;;;;7.23;2.90;;;4.40;99.90;;;;;;5276349;27;20262;-68
2024/04/20 02:26:34;;;;;;;6.83;3.00;;;4.40;99.90;;;;;;5275061;27;20717;-69
2024/04/20 02:29:00;;;;;;;9.40;2.83;;;4.40;99.90;;;;;;5274992;27;20227;-69
2024/04/20 02:31:27;;;;;;;10.53;3.53;;;4.40;99.90;;;;;;5293609;27;20218;-68
2024/04/20 02:33:53;;;;;;;7.40;2.60;;;4.30;99.90;;;;;;5310533;26;20572;-68
2024/04/20 02:36:18;;;;;;;3.70;3.30;;;4.30;99.90;;;;;;5282846;26;20474;-69
2024/04/20 02:38:44;;;;;;;4.90;3.03;;;4.40;99.90;;;;;;5274116;27;20257;-68
2024/04/20 02:41:09;;;;;;;4.50;2.83;;;4.30;99.90;;;;;;5275752;27;20258;-68
2024/04/20 02:43:35;;;;;;;5.50;3.07;;;4.30;99.90;;;;;;5275562;27;20227;-68
2024/04/20 02:46:01;;;;;;;6.37;2.50;;;4.30;99.90;;;;;;5282426;27;20223;-69
2024/04/20 02:48:26;;;;;;;6.03;3.00;;;4.30;99.90;;;;;;5275031;27;20234;-69
2024/04/20 02:50:52;;;;;;;11.10;2.70;;;4.30;99.90;;;;;;5275312;27;20333;-68
2024/04/20 02:53:17;;;;;;;3.70;2.20;;;4.30;99.90;;;;;;5275443;27;20267;-68
2024/04/20 02:55:43;;;;;;;5.20;3.80;;;4.30;99.90;;;;;;5275455;27;20309;-68
2024/04/20 02:58:10;;;;;;;4.00;2.50;;;4.20;99.90;;;;;;5297660;27;20818;-68
2024/04/20 03:00:35;;;;;;;5.23;2.80;;;4.20;99.90;;;;;;5295424;27;20462;-68
2024/04/20 03:03:01;;;;;;;7.50;3.20;;;4.20;99.90;;;;;;5278656;27;20959;-68
2024/04/20 03:05:27;;;;;;;6.17;2.90;;;4.10;99.90;;;;;;5303568;27;20222;-69
2024/04/20 03:07:52;;;;;;;7.60;3.10;;;4.10;99.90;;;;;;5309352;26;20608;-68
2024/04/20 03:10:18;;;;;;;8.10;2.83;;;4.10;99.90;;;;;;5291429;27;20576;-68
2024/04/20 03:12:43;;;;;;;5.43;3.13;;;4.10;99.90;;;;;;5278807;27;20253;-69
2024/04/20 03:15:09;;;;;;;7.33;2.77;;;4.10;99.90;;;;;;5278875;27;20689;-69
2024/04/20 03:17:34;;;;;;;5.70;2.63;;;4.10;99.90;;;;;;5312645;26;20225;-68
2024/04/20 03:20:00;;;;;;;13.40;3.17;;;4.00;99.90;;;;;;5287007;26;20226;-69
2024/04/20 03:22:25;;;;;;;5.50;2.80;;;4.00;99.90;;;;;;5279011;27;20705;-68
2024/04/20 03:24:51;;;;;;;9.73;2.90;;;4.00;99.90;;;;;;5280433;26;20235;-68
2024/04/20 03:27:16;;;;;;;5.83;2.60;;;3.90;99.90;;;;;;5278581;27;20396;-68
2024/04/20 03:29:42;;;;;;;7.97;3.10;;;3.90;99.90;;;;;;5277813;27;20227;-67
2024/04/20 03:32:07;;;;;;;8.63;3.53;;;3.90;99.90;;;;;;5307165;27;20229;-68
2024/04/20 03:34:33;;;;;;;5.70;3.37;;;3.90;99.90;;;;;;5281882;26;20227;-70
2024/04/20 03:36:58;;;;;;;4.60;2.77;;;3.90;99.90;;;;;;5276716;27;20829;-67
2024/04/20 03:39:24;;;;;;;8.60;4.03;;;3.90;99.90;;;;;;5277399;27;20242;-69
2024/04/20 03:41:49;;;;;;;7.80;3.50;;;3.90;99.90;;;;;;5293211;27;20398;-68
2024/04/20 03:44:16;;;;;;;5.80;2.57;;;3.90;99.90;;;;;;5295980;26;20733;-68
2024/04/20 03:46:41;;;;;;;9.27;3.47;;;4.00;99.90;;;;;;5299823;26;20226;-68
2024/04/20 03:49:07;;;;;;;2.90;2.60;;;4.00;99.90;;;;;;5283626;26;20526;-68
2024/04/20 03:51:33;;;;;;;9.60;2.87;;;4.00;99.90;;;;;;5279969;27;20268;-70
2024/04/20 03:53:59;;;;;;;5.40;3.10;;;4.10;99.90;;;;;;5298156;27;20218;-68
2024/04/20 03:56:25;;;;;;;7.90;3.40;;;4.10;99.90;;;;;;5290299;26;20635;-69
2024/04/20 03:58:51;;;;;;;6.10;3.70;;;4.20;99.90;;;;;;5277562;27;20458;-68
2024/04/20 04:01:17;;;;;;;7.27;3.00;;;4.20;99.90;;;;;;5294216;27;20394;-68
2024/04/20 04:03:43;;;;;;;12.13;3.60;;;4.20;99.90;;;;;;5300077;26;20347;-68
2024/04/20 04:06:08;;;;;;;9.43;2.53;;;4.20;99.90;;;;;;5311637;26;20464;-68
2024/04/20 04:08:34;;;;;;;6.40;2.70;;;4.30;99.90;;;;;;5296211;26;20301;-68
2024/04/20 04:11:00;;;;;;;9.80;3.70;;;4.30;99.90;;;;;;5292530;26;20330;-68
2024/04/20 04:13:26;;;;;;;5.87;4.03;;;4.40;99.90;;;;;;5276344;27;20312;-68
2024/04/20 04:15:51;;;;;;;6.53;3.07;;;4.40;99.90;;;;;;5278339;27;21010;-68
2024/04/20 04:18:17;;;;;;;3.50;2.90;;;4.50;99.90;;;;;;5277252;27;20755;-68
2024/04/20 04:20:43;;;;;;;6.20;3.13;;;4.50;99.90;;;;;;5276996;27;20227;-69
2024/04/20 04:23:08;;;;;;;5.70;3.37;;;4.50;99.90;;;;;;5277818;27;20291;-67
2024/04/20 04:25:37;;;;;;;9.80;3.20;;;4.50;99.90;;;;;;5277555;27;20767;-69
2024/04/20 04:28:02;;;;;;;9.30;3.47;;;4.50;99.90;;;;;;5277438;27;20261;-68
2024/04/20 04:30:28;;;;;;;4.43;2.63;;;4.50;99.90;;;;;;5292168;27;20474;-69
2024/04/20 04:32:53;;;;;;;9.60;2.73;;;4.50;99.90;;;;;;5281362;27;20223;-68
2024/04/20 04:35:19;;;;;;;3.87;2.90;;;4.60;99.90;;;;;;5277422;27;20223;-69
2024/04/20 04:37:44;;;;;;;8.07;3.00;;;4.50;99.90;;;;;;5277568;27;20725;-69
2024/04/20 04:40:10;;;;;;;4.87;2.77;;;4.50;99.90;;;;;;5276899;27;20256;-69
2024/04/20 04:42:36;;;;;;;3.20;2.50;;;4.50;99.90;;;;;;5277585;27;20258;-69
2024/04/20 04:45:02;;;;;;;7.97;2.87;;;4.50;99.90;;;;;;5277559;27;20469;-68
2024/04/20 04:47:28;;;;;;;4.10;3.27;;;4.50;99.90;;;;;;5287944;27;20242;-68
2024/04/20 04:49:54;;;;;;;5.63;2.50;;;4.50;99.90;;;;;;5290027;26;20574;-68
2024/04/20 04:52:19;;;;;;;3.37;2.30;;;4.50;99.90;;;;;;5276348;27;20266;-68
2024/04/20 04:54:45;;;;;;;4.70;3.17;;;4.50;99.90;;;;;;5277679;27;20681;-68
2024/04/20 04:57:10;;;;;;;6.10;2.60;;;4.60;99.90;;;;;;5276866;27;20219;-68
2024/04/20 04:59:36;;;;;;;3.63;3.13;;;4.60;99.90;;;;;;5277055;27;20227;-68
2024/04/20 05:02:02;;;;;;;5.43;2.70;;;4.60;99.90;;;;;;5276812;27;20312;-67
2024/04/20 05:04:28;;;;;;;5.50;2.90;;;4.60;99.90;;;;;;5275199;27;20744;-68
2024/04/20 05:06:54;;;;;;;4.83;2.80;;;4.60;99.90;;;;;;5277071;27;20562;-68
2024/04/20 05:09:19;;;;;;;5.57;3.03;;;4.60;99.90;;;;;;5277234;27;20470;-68
2024/04/20 05:11:45;;;;;;;10.67;3.97;;;4.60;99.90;;;;;;5276383;27;20262;-68
2024/04/20 05:14:11;;;;;;;4.50;3.17;;;4.50;99.90;;;;;;5295079;27;20226;-68
2024/04/20 05:16:37;;;;;;;5.80;3.07;;;4.50;99.90;;;;;;5277258;27;20235;-68
2024/04/20 05:19:05;;;;;;;9.33;4.13;;;4.50;99.90;;;;;;5279809;27;20462;-68
2024/04/20 05:21:30;;;;;;;9.97;4.10;;;4.50;99.90;;;;;;5282351;27;20262;-69
2024/04/20 05:23:56;;;;;;;4.07;3.60;;;4.60;99.90;;;;;;5278902;27;20458;-68
2024/04/20 05:26:23;;;;;;;7.33;3.90;;;4.60;99.90;;;;;;5277837;27;20223;-68
2024/04/20 05:28:49;;;;;;;7.43;3.17;;;4.70;99.90;;;;;;5290840;26;20231;-68
2024/04/20 05:31:15;;;;;;;7.03;3.60;;;4.80;99.90;;;;;;5276322;27;20458;-68
2024/04/20 05:33:41;;;;;;;7.63;3.27;;;4.90;99.90;;;;;;5278484;27;20578;-68
2024/04/20 05:36:07;;;;;;;5.23;3.30;;;4.90;99.90;;;;;;5296577;27;20270;-68
2024/04/20 05:38:32;;;;;;;8.03;3.13;;;4.90;99.90;;;;;;5290458;27;20455;-68
2024/04/20 05:41:05;;;;;;;6.23;3.30;;;4.80;99.90;;;;;;5289280;26;20833;-68
2024/04/20 05:43:31;;;;;;;4.27;3.20;;;4.90;99.90;;;;;;5277434;27;20223;-68
2024/04/20 05:45:57;;;;;;;5.20;3.27;;;4.80;99.90;;;;;;5275817;27;20466;-68
2024/04/20 05:48:22;;;;;;;4.90;3.00;;;4.80;99.90;;;;;;5276163;27;20466;-68
2024/04/20 05:50:48;;;;;;;6.00;3.10;;;4.70;99.90;;;;;;5276201;27;20879;-68
2024/04/20 05:53:13;;;;;;;7.93;3.37;;;4.70;99.90;;;;;;5276283;27;20223;-68
2024/04/20 05:55:41;;;;;;;6.67;3.90;;;4.70;99.90;;;;;;5277181;27;20269;-68
2024/04/20 05:58:06;;;;;;;4.10;3.30;;;4.80;99.90;;;;;;5275764;27;20230;-68
2024/04/20 06:00:32;;;;;;;2.90;2.60;;;4.90;99.90;;;;;;5276040;27;20519;-69
2024/04/20 06:02:57;;;;;;;5.30;3.60;;;4.80;99.90;;;;;;5276285;27;20276;-68
2024/04/20 06:05:23;;;;;;;11.47;4.30;;;4.90;99.90;;;;;;5276265;27;20290;-68
2024/04/20 06:07:48;;;;;;;7.40;3.00;;;5.00;99.90;;;;;;5276481;27;20224;-69
2024/04/20 06:10:14;;;;;;;5.53;2.50;;;5.20;99.90;;;;;;5275559;27;20227;-68
2024/04/20 06:12:39;;;;;;;4.60;3.00;;;5.30;99.90;;;;;;5276046;27;20278;-68
2024/04/20 06:15:05;;;;;;;8.00;2.70;;;5.40;99.90;;;;;;5275904;27;20345;-68
2024/04/20 06:17:31;;;;;;;6.20;2.90;;;5.50;99.90;;;;;;5275803;27;20595;-68
2024/04/20 06:19:56;;;;;;;6.10;2.67;;;5.70;99.90;;;;;;5275654;27;20326;-69
2024/04/20 06:22:22;;;;;;;4.03;3.73;;;5.90;99.90;;;;;;5276270;27;20215;-69
2024/04/20 06:24:52;;;;;;;7.10;2.73;;;6.10;99.90;;;;;;5275797;27;20338;-68
2024/04/20 06:27:18;;;;;;;3.27;2.80;;;6.20;99.90;;;;;;5275767;27;20231;-69
2024/04/20 06:29:44;;;;;;;2.60;2.40;;;6.10;99.90;;;;;;5275778;27;20534;-68
2024/04/20 06:32:09;;;;;;;2.90;2.70;;;6.20;99.90;;;;;;5290346;27;20273;-68
2024/04/20 06:34:35;;;;;;;3.57;2.27;;;6.20;99.90;;;;;;5304454;26;20227;-68
2024/04/20 06:37:00;;;;;;;7.30;2.53;;;6.50;99.90;;;;;;5278834;27;20273;-68
2024/04/20 06:39:27;;;;;;;3.57;2.50;;;6.80;99.90;;;;;;5278781;27;20223;-69
2024/04/20 06:41:54;;;;;;;4.17;2.47;;;7.10;99.90;;;;;;5278957;27;20286;-68
2024/04/20 06:44:20;;;;;;;8.43;2.67;;;7.20;99.90;;;;;;5278912;27;20450;-69
2024/04/20 06:46:46;;;;;;;3.50;3.20;;;7.40;99.90;;;;;;5277346;27;20462;-69
2024/04/20 06:49:13;;;;;;;4.60;2.53;;;7.60;99.90;;;;;;5279283;27;20539;-70
2024/04/20 06:51:38;;;;;;;8.83;3.03;;;8.10;99.90;;;;;;5278695;27;20586;-68
2024/04/20 06:54:04;;;;;;;5.00;3.20;;;8.20;99.90;;;;;;5279242;27;21023;-68
2024/04/20 06:56:29;;;;;;;3.63;2.20;;;8.40;99.90;;;;;;5276794;27;20658;-68
2024/04/20 06:58:55;;;;;;;8.47;2.37;;;8.40;99.90;;;;;;5278748;27;20337;-69
2024/04/20 07:01:20;;;;;;;3.97;2.30;;;8.60;99.90;;;;;;5278973;27;20591;-69
2024/04/20 07:03:46;;;;;;;3.80;2.40;;;8.80;99.90;;;;;;5278909;27;20586;-68
2024/04/20 07:06:11;;;;;;;2.70;1.77;;;9.10;99.90;;;;;;5278364;27;20243;-70
2024/04/20 07:08:37;;;;;;;4.50;2.10;;;9.30;99.90;;;;;;5278766;27;20281;-69
2024/04/20 07:11:04;;;;;;;4.00;2.20;;;9.10;99.90;;;;;;5278689;27;20239;-69
2024/04/20 07:13:38;;;;;;;2.70;2.50;;;8.70;99.90;;;;;;5278690;27;20227;-70
2024/04/20 07:16:04;;;;;;;13.30;3.13;;;9.00;99.90;;;;;;5277521;27;20459;-69
2024/04/20 07:18:30;;;;;;;4.20;2.70;;;9.30;99.90;;;;;;5278985;27;20442;-69
2024/04/20 07:20:56;;;;;;;3.10;2.37;;;9.10;99.90;;;;;;5278428;27;20808;-69
2024/04/20 07:23:21;;;;;;;5.43;4.10;;;9.00;99.90;;;;;;5278779;27;20242;-69
2024/04/20 07:25:57;;;;;;;4.27;3.63;;;8.70;99.90;;;;;;5278468;27;20470;-69
2024/04/20 07:28:22;;;;;;;3.90;2.70;;;8.40;99.90;;;;;;5279006;27;20211;-69
2024/04/20 07:30:48;;;;;;;3.63;2.97;;;8.40;99.90;;;;;;5278634;27;20458;-70
2024/04/20 07:33:13;;;;;;;4.77;3.10;;;8.60;99.90;;;;;;5307753;27;20335;-69
2024/04/20 07:35:39;;;;;;;4.80;3.77;;;8.80;99.90;;;;;;5312880;26;20261;-69
2024/04/20 07:38:04;;;;;;;5.13;3.00;;;8.90;99.90;;;;;;5308530;26;20273;-70
2024/04/20 07:40:30;;;;;;;3.00;2.70;;;8.90;99.90;;;;;;5278520;27;20227;-70
2024/04/20 07:42:56;;;;;;;6.00;3.00;;;8.70;99.90;;;;;;5278267;27;20278;-73
2024/04/20 07:45:21;;;;;;;4.13;3.20;;;8.80;99.90;;;;;;5278624;27;20758;-70
2024/04/20 07:47:47;;;;;;;4.20;3.80;;;8.80;99.90;;;;;;5278033;27;20269;-70
2024/04/20 07:50:14;;;;;;;4.40;3.40;;;8.80;99.90;;;;;;5277305;27;20215;-70
2024/04/20 07:52:40;;;;;;;4.13;3.73;;;9.00;99.90;;;;;;5278049;27;20219;-71
2024/04/20 07:55:06;;;;;;;3.60;3.30;;;9.10;99.90;;;;;;5277775;27;20570;-71
2024/04/20 07:57:32;;;;;;;6.30;3.00;;;9.20;99.90;;;;;;5306761;22;20502;-70
2024/04/20 07:59:57;;;;;;;4.63;3.00;;;9.10;99.90;;;;;;5276940;27;20708;-69
2024/04/20 08:02:23;;;;;;;7.20;3.10;;;9.10;99.90;;;;;;5277671;27;20235;-70
2024/04/20 08:04:48;;;;;;;4.43;2.90;;;9.10;99.90;;;;;;5278533;27;20215;-70
2024/04/20 08:07:14;;;;;;;3.33;3.03;;;9.10;99.90;;;;;;5263103;27;20224;-69
2024/04/20 08:09:39;;;;;;;3.53;3.00;;;9.40;99.90;;;;;;5244236;27;20710;-69
2024/04/20 08:12:05;;;;;;;3.27;2.97;;;9.80;99.90;;;;;;5244305;27;20271;-70
2024/04/20 08:14:30;;;;;;;4.80;2.67;;;10.00;99.90;;;;;;5244723;27;20603;-69
2024/04/20 08:16:56;;;;;;;2.80;2.43;;;10.00;99.90;;;;;;5244372;27;20756;-69
2024/04/20 08:19:21;;;;;;;3.83;3.00;;;9.60;99.90;;;;;;5244171;27;20220;-70
2024/04/20 08:21:47;;;;;;;4.40;2.93;;;9.30;99.90;;;;;;5243352;27;20236;-69
2024/04/20 08:24:12;;;;;;;2.40;2.20;;;9.50;99.90;;;;;;5244130;27;20228;-70
2024/04/20 08:26:38;;;;;;;4.77;3.23;;;9.40;99.90;;;;;;5243748;27;20233;-69
2024/04/20 08:29:03;;;;;;;3.53;2.57;;;9.20;99.90;;;;;;5244643;27;20296;-69
2024/04/20 08:31:29;;;;;;;3.40;3.10;;;9.30;99.90;;;;;;5243454;27;20228;-70
2024/04/20 08:33:54;;;;;;;4.83;3.60;;;9.80;99.90;;;;;;5242955;27;20796;-70
2024/04/20 08:36:20;;;;;;;3.00;2.70;;;10.40;99.90;;;;;;5243853;27;20387;-70
2024/04/20 08:38:45;;;;;;;5.93;2.90;;;10.50;99.90;;;;;;5243888;27;20274;-70
2024/04/20 08:41:16;;;;;;;7.43;3.00;;;10.30;99.90;;;;;;5243355;27;20584;-69
2024/04/20 08:43:42;;;;;;;3.07;2.53;;;10.10;99.90;;;;;;5243487;27;20565;-70
2024/04/20 08:46:11;;;;;;;5.83;3.57;;;10.10;99.90;;;;;;5244187;27;20818;-70
2024/04/20 08:48:37;;;;;;;4.73;3.60;;;10.40;99.90;;;;;;5244037;27;20455;-70
2024/04/20 08:51:06;;;;;;;3.53;3.23;;;10.50;99.90;;;;;;5243529;27;21130;-71
2024/04/20 08:53:33;;;;;;;7.13;5.90;;;10.10;99.90;;;;;;5243489;27;20258;-69
2024/04/20 08:56:00;;;;;;;6.10;4.10;;;10.10;99.90;;;;;;5242824;27;20457;-70
2024/04/20 08:58:26;;;;;;;8.43;3.00;;;9.90;99.90;;;;;;5243912;27;20541;-70
2024/04/20 09:00:56;;;;;;;6.43;3.03;;;9.80;99.90;;;;;;5243095;27;20455;-70
2024/04/20 09:03:22;;;;;;;7.53;3.43;;;9.60;99.90;;;;;;5243389;27;20240;-70
2024/04/20 09:05:50;;;;;;;3.97;3.10;;;9.60;99.90;;;;;;5243376;27;20480;-69
2024/04/20 09:08:16;;;;;;;4.10;3.80;;;9.50;99.90;;;;;;5243170;27;20232;-69
2024/04/20 09:10:42;;;;;;;4.40;4.10;;;10.00;99.90;;;;;;5243398;27;20464;-71
2024/04/20 09:13:09;;;;;;;5.30;4.10;;;10.70;99.90;;;;;;5243426;27;20327;-70
2024/04/20 09:15:36;;;;;;;3.90;2.97;;;11.80;99.90;;;;;;5243815;27;20232;-70
2024/04/20 09:18:02;;;;;;;5.67;3.80;;;12.20;99.90;;;;;;5243444;27;20531;-70
2024/04/20 09:20:29;;;;;;;6.43;3.60;;;12.10;99.90;;;;;;5243120;27;20456;-70
2024/04/20 09:23:07;;;;;;;3.20;2.90;;;11.90;99.90;;;;;;5242923;27;20590;-70
2024/04/20 09:25:35;;;;;;;4.13;3.33;;;12.00;99.90;;;;;;5243549;27;20619;-70
2024/04/20 09:28:00;;;;;;;3.60;3.20;;;12.30;99.90;;;;;;5243013;27;20500;-69
2024/04/20 09:30:26;;;;;;;3.03;2.73;;;12.40;99.90;;;;;;5244699;27;20988;-69
2024/04/20 09:32:52;;;;;;;4.60;2.93;;;11.90;99.90;;;;;;5268962;27;20349;-69
2024/04/20 09:35:19;;;;;;;6.13;3.80;;;11.30;99.90;;;;;;5270709;27;20227;-69
2024/04/20 09:37:45;;;;;;;3.93;3.40;;;10.70;99.90;;;;;;5257574;27;20244;-70
2024/04/20 09:40:11;;;;;;;4.13;3.30;;;10.60;99.90;;;;;;5240809;27;20475;-72
2024/04/20 09:42:45;;;;;;;3.70;3.40;;;11.10;99.90;;;;;;5243275;27;20562;-72
2024/04/20 09:45:11;;;;;;;6.87;4.20;;;11.20;99.90;;;;;;5243533;27;20317;-71
2024/04/20 09:47:36;;;;;;;4.80;2.97;;;11.10;99.90;;;;;;5243027;27;20472;-71
2024/04/20 09:50:10;;;;;;;6.10;3.33;;;11.10;99.90;;;;;;5243579;27;20224;-70
2024/04/20 09:52:55;;;;;;;3.00;2.80;;;11.00;99.90;;;;;;5235157;27;20240;-68
2024/04/20 09:55:30;;;;;;;4.20;3.60;;;11.00;99.90;;;;;;5250210;27;20512;-67
2024/04/20 09:57:58;;;;;;;4.10;3.70;;;11.10;99.90;;;;;;5233795;27;20463;-68
2024/04/20 10:00:24;;;;;;;4.73;2.90;;;11.30;99.90;;;;;;5242162;27;20456;-68
2024/04/20 10:02:52;;;;;;;3.63;3.03;;;11.30;99.90;;;;;;5242592;27;20520;-69
2024/04/20 10:05:18;;;;;;;5.90;2.90;;;11.00;99.90;;;;;;5241775;27;20471;-69
2024/04/20 10:07:45;;;;;;;2.97;2.77;;;11.60;99.90;;;;;;5242377;27;20800;-69
2024/04/20 10:10:15;;;;;;;6.77;2.43;;;12.00;99.90;;;;;;5242822;27;20459;-69
2024/04/20 10:12:43;;;;;;;8.07;2.47;;;11.80;99.90;;;;;;5234487;27;20456;-69
2024/04/20 10:15:09;;;;;;;2.70;2.50;;;11.00;99.90;;;;;;5241034;27;20467;-70
2024/04/20 10:17:35;;;;;;;3.03;2.73;;;10.10;99.90;;;;;;5242701;27;20475;-68
2024/04/20 10:20:01;;;;;;;4.07;3.40;;;9.40;99.90;;;;;;5240530;27;20575;-68
2024/04/20 10:22:27;;;;;;;4.97;3.67;;;8.80;99.90;;;;;;5241668;27;20239;-69
2024/04/20 10:24:58;;;;;;;4.17;3.77;;;8.60;99.90;;;;;;5242290;27;20718;-68
2024/04/20 10:27:26;;;;;;;7.60;4.10;;;8.50;99.90;;;;;;5240444;27;20240;-68
2024/04/20 10:29:51;;;;;;;3.80;3.10;;;8.50;99.90;;;;;;5241193;27;21052;-69
2024/04/20 10:32:23;;;;;;;3.40;3.03;;;8.80;99.90;;;;;;5241078;27;20584;-69
2024/04/20 10:34:48;;;;;;;6.53;2.80;;;9.10;99.90;;;;;;5241902;27;20236;-68
2024/04/20 10:37:23;;;;;;;3.30;3.10;;;9.70;99.90;;;;;;5238543;27;20520;-69
2024/04/20 10:39:49;;;;;;;3.27;3.00;;;10.20;99.90;;;;;;5237175;27;20278;-69
2024/04/20 10:42:22;;;;;;;6.63;2.80;;;10.40;99.90;;;;;;5245029;27;20862;-69
2024/04/20 10:44:47;;;;;;;2.67;2.47;;;10.60;99.90;;;;;;5242012;27;20279;-69
2024/04/20 10:47:19;;;;;;;4.20;3.13;;;10.50;99.90;;;;;;5240623;27;20475;-70
2024/04/20 10:49:45;;;;;;;5.03;3.47;;;10.10;99.90;;;;;;5242116;27;20215;-69
2024/04/20 10:52:11;;;;;;;3.60;3.30;;;9.60;99.90;;;;;;5241668;27;21121;-69
2024/04/20 10:54:37;;;;;;;6.30;3.60;;;9.20;99.90;;;;;;5241913;27;20216;-69
2024/04/20 10:57:04;;;;;;;4.20;3.80;;;8.90;99.90;;;;;;5241849;27;20460;-69
2024/04/20 10:59:30;;;;;;;5.13;3.60;;;8.70;99.90;;;;;;5242480;27;20229;-69
2024/04/20 11:01:56;;;;;;;3.70;3.40;;;8.60;99.90;;;;;;5241447;27;20519;-69
2024/04/20 11:04:21;;;;;;;4.53;3.00;;;8.70;99.90;;;;;;5242093;27;20610;-69
2024/04/20 11:06:47;;;;;;;4.70;3.00;;;8.80;99.90;;;;;;5240902;27;20344;-68
2024/04/20 11:09:13;;;;;;;3.50;2.97;;;9.00;99.90;;;;;;5241978;27;20224;-69
2024/04/20 11:11:39;;;;;;;4.30;2.90;;;9.00;99.90;;;;;;5241409;27;20282;-69
2024/04/20 11:14:05;;;;;;;3.50;3.30;;;9.20;99.90;;;;;;5241344;27;20464;-70
2024/04/20 11:16:31;;;;;;;4.40;2.70;;;9.40;99.90;;;;;;5241397;27;20515;-69
2024/04/20 11:19:00;;;;;;;7.20;4.63;;;9.50;99.90;;;;;;5243074;27;20267;-69
2024/04/20 11:21:26;;;;;;;2.43;2.20;;;9.50;99.90;;;;;;5245053;27;20791;-69
2024/04/20 11:23:52;;;;;;;3.03;2.20;;;9.30;99.90;;;;;;5244831;27;20523;-70
2024/04/20 11:26:17;;;;;;;4.70;2.87;;;9.40;99.90;;;;;;5244453;27;20278;-69
2024/04/20 11:28:43;;;;;;;4.23;3.10;;;9.50;99.90;;;;;;5244332;27;20936;-69
2024/04/20 11:31:10;;;;;;;3.10;2.50;;;9.80;99.90;;;;;;5244442;27;20583;-70
2024/04/20 11:33:36;;;;;;;3.57;3.00;;;10.00;99.90;;;;;;5245005;27;20212;-69
2024/04/20 11:36:06;;;;;;;4.77;2.90;;;10.10;99.90;;;;;;5244775;27;20520;-69
2024/04/20 11:38:31;;;;;;;3.40;2.70;;;10.30;99.90;;;;;;5243830;27;20224;-70
2024/04/20 11:40:57;;;;;;;2.90;2.70;;;10.50;99.90;;;;;;5244794;27;20502;-69
2024/04/20 11:43:24;;;;;;;2.60;2.40;;;10.60;99.90;;;;;;5245032;27;20292;-68
2024/04/20 11:45:52;;;;;;;3.73;2.20;;;10.80;99.90;;;;;;5244418;27;20229;-70
2024/04/20 11:48:28;;;;;;;3.10;2.60;;;11.10;99.90;;;;;;5243719;27;20448;-69
2024/04/20 11:56:23;;;;;;;4.27;3.10;;;11.20;99.90;;;;;;5244364;27;20496;-69
2024/04/20 11:58:51;;;;;;;5.00;2.67;;;11.60;99.90;;;;;;5244333;27;20463;-69
2024/04/20 12:01:18;;;;;;;3.10;2.80;;;11.30;99.90;;;;;;5244320;27;20210;-69
2024/04/20 12:03:47;;;;;;;3.30;3.10;;;11.20;99.90;;;;;;5244710;27;20440;-69
2024/04/20 12:06:13;;;;;;;5.47;3.40;;;11.10;99.90;;;;;;5244273;27;20515;-69
2024/04/20 12:08:43;;;;;;;3.47;3.17;;;11.50;98.80;;;;;;5243397;27;20871;-69
2024/04/20 12:11:10;;;;;;;3.07;2.83;;;11.70;98.80;;;;;;5244251;27;20287;-69
2024/04/20 12:13:36;;;;;;;3.00;2.37;;;11.80;98.20;;;;;;5243988;27;20452;-69
2024/04/20 12:16:02;;;;;;;2.87;2.67;;;12.50;96.00;;;;;;5244309;27;20809;-69
2024/04/20 12:18:28;;;;;;;3.10;2.80;;;12.90;94.40;;;;;;5243944;27;20331;-69
2024/04/20 12:20:53;;;;;;;3.30;2.60;;;12.90;93.60;;;;;;5244025;27;20464;-69
2024/04/20 12:23:19;;;;;;;3.40;2.97;;;13.00;92.00;;;;;;5244008;27;20288;-69
2024/04/20 12:25:48;;;;;;;2.67;2.47;;;13.00;91.30;;;;;;5244274;27;20263;-69
2024/04/20 12:28:14;;;;;;;3.17;2.90;;;12.90;91.60;;;;;;5243161;27;20244;-70
2024/04/20 12:30:40;;;;;;;3.20;2.90;;;13.30;90.30;;;;;;5240980;27;20475;-69
2024/04/20 12:33:05;;;;;;;2.67;2.47;;;13.70;86.90;;;;;;5244161;27;20519;-69
2024/04/20 12:35:34;;;;;;;3.73;3.43;;;14.00;82.70;;;;;;5243843;27;20571;-69
2024/04/20 12:38:00;;;;;;;3.10;2.90;;;15.20;80.50;;;;;;5243390;27;20244;-70
2024/04/20 12:40:25;;;;;;;3.53;3.23;;;16.40;71.80;;;;;;5243861;27;20577;-69
2024/04/20 12:42:51;;;;;;;2.50;2.30;;;18.10;59.20;;;;;;5243241;27;20274;-69
2024/04/20 12:45:16;;;;;;;2.77;2.50;;;18.10;48.90;;;;;;5244060;27;20228;-70
2024/04/20 12:47:46;;;;;;;2.07;1.97;;;18.80;48.40;;;;;;5243914;27;20738;-69
2024/04/20 12:50:12;;;;;;;2.33;2.13;;;18.80;42.90;;;;;;5243250;27;20228;-69
2024/04/20 12:52:37;;;;;;;2.40;2.20;;;19.40;40.50;;;;;;5243796;27;20519;-71
2024/04/20 12:55:03;;;;;;;2.70;2.50;;;19.20;39.70;;;;;;5243822;27;20275;-70